Time;durP1;ratioP1;P1;durP2;ratioP2;P2;SDS_P1;SDS_P2;PMS_P1;PMS_P2;Temp;Humidity;BMP_temperature;BMP_pressure;BME280_temperature;BME280_humidity;BME280_pressure;Samples;Min_cycle;Max_cycle;Signal;HPM_P1;HPM_P2
2023/06/30 00:00:27;;;;;;;13.90;6.10;;;21.70;75.30;;;;;;5080288;28;20480;-79
2023/06/30 00:02:55;;;;;;;9.03;6.00;;;21.70;75.30;;;;;;5084994;28;21128;-79
2023/06/30 00:05:25;;;;;;;13.93;6.90;;;21.70;75.40;;;;;;5083119;28;20496;-78
2023/06/30 00:07:58;;;;;;;10.13;6.17;;;21.60;75.40;;;;;;5087419;28;20469;-79
2023/06/30 00:10:26;;;;;;;11.13;6.20;;;21.60;75.50;;;;;;5088575;28;20518;-79
2023/06/30 00:12:54;;;;;;;11.37;6.50;;;21.60;75.50;;;;;;5087675;28;20484;-79
2023/06/30 00:15:22;;;;;;;9.10;5.97;;;21.50;75.60;;;;;;5085479;28;20453;-78
2023/06/30 00:17:52;;;;;;;9.13;6.10;;;21.50;75.60;;;;;;5081959;28;20472;-80
2023/06/30 00:20:21;;;;;;;10.13;6.87;;;21.50;75.60;;;;;;5087674;28;20461;-79
2023/06/30 00:22:51;;;;;;;9.30;6.10;;;21.40;75.70;;;;;;5085177;28;20531;-79
2023/06/30 00:25:20;;;;;;;10.93;6.57;;;21.40;75.90;;;;;;5082180;28;20472;-78
2023/06/30 00:27:48;;;;;;;9.40;6.50;;;21.40;76.00;;;;;;5084329;28;20540;-78
2023/06/30 00:30:17;;;;;;;10.83;5.70;;;21.40;76.00;;;;;;5078749;28;20458;-79
2023/06/30 00:32:44;;;;;;;12.13;6.93;;;21.40;75.90;;;;;;5084773;28;20970;-79
2023/06/30 00:35:12;;;;;;;10.80;5.80;;;21.40;75.90;;;;;;5070298;28;20478;-79
2023/06/30 00:37:41;;;;;;;9.77;5.53;;;21.40;75.90;;;;;;5067151;28;20870;-78
2023/06/30 00:40:14;;;;;;;10.87;6.40;;;21.40;75.80;;;;;;5074371;28;20485;-78
2023/06/30 00:42:41;;;;;;;10.70;6.10;;;21.40;75.80;;;;;;5074385;28;20475;-78
2023/06/30 00:45:12;;;;;;;12.13;6.23;;;21.30;75.80;;;;;;5067349;28;20457;-78
2023/06/30 00:47:40;;;;;;;13.00;6.03;;;21.30;75.80;;;;;;5082113;28;20476;-78
2023/06/30 00:50:10;;;;;;;9.10;6.40;;;21.30;75.80;;;;;;5074204;28;20444;-78
2023/06/30 00:52:38;;;;;;;11.73;6.93;;;21.20;75.80;;;;;;5079278;28;20835;-78
2023/06/30 00:55:08;;;;;;;10.00;6.90;;;21.20;75.90;;;;;;5083899;28;20488;-77
2023/06/30 00:57:38;;;;;;;13.30;5.90;;;21.20;75.90;;;;;;5064635;28;20523;-78
2023/06/30 01:00:11;;;;;;;11.90;6.10;;;21.20;75.90;;;;;;5052406;28;20458;-78
2023/06/30 01:02:44;;;;;;;11.43;6.20;;;21.20;75.90;;;;;;5067774;28;20461;-79
2023/06/30 01:05:25;;;;;;;10.83;5.80;;;21.30;75.90;;;;;;5064706;28;20467;-79
2023/06/30 01:08:01;;;;;;;9.90;6.90;;;21.30;75.90;;;;;;5071820;28;20464;-78
2023/06/30 01:10:32;;;;;;;12.37;6.83;;;21.20;75.70;;;;;;5082355;28;20476;-78
2023/06/30 01:13:02;;;;;;;9.90;6.07;;;21.20;75.60;;;;;;5085754;28;20476;-78
2023/06/30 01:15:31;;;;;;;10.80;6.40;;;21.10;75.70;;;;;;5075506;28;20445;-78
2023/06/30 01:18:01;;;;;;;13.80;6.50;;;21.10;75.90;;;;;;5065589;28;20465;-78
2023/06/30 01:20:32;;;;;;;10.03;6.30;;;21.10;75.80;;;;;;5080058;28;20487;-78
2023/06/30 01:23:13;;;;;;;14.07;7.13;;;21.10;75.80;;;;;;5085140;28;20584;-78
2023/06/30 01:25:42;;;;;;;20.37;6.30;;;21.10;75.80;;;;;;5068363;28;20465;-78
2023/06/30 01:28:13;;;;;;;12.17;6.20;;;21.00;75.60;;;;;;5070127;28;20858;-78
2023/06/30 01:30:42;;;;;;;12.40;6.73;;;21.00;75.60;;;;;;5065438;28;20477;-78
2023/06/30 01:33:10;;;;;;;12.03;6.60;;;21.00;75.60;;;;;;5069510;28;20547;-78
2023/06/30 01:35:40;;;;;;;13.13;6.27;;;20.90;75.60;;;;;;5080615;28;20453;-78
2023/06/30 01:38:08;;;;;;;12.53;6.20;;;20.90;75.60;;;;;;5085863;28;20623;-78
2023/06/30 01:40:36;;;;;;;8.80;5.70;;;20.80;75.60;;;;;;5089453;28;20452;-79
2023/06/30 01:43:05;;;;;;;15.07;6.10;;;20.80;75.60;;;;;;5078812;28;20453;-78
2023/06/30 01:45:34;;;;;;;10.80;6.77;;;20.80;75.60;;;;;;5079723;28;20452;-78
2023/06/30 01:48:03;;;;;;;9.10;6.40;;;20.80;75.70;;;;;;5072086;28;20967;-78
2023/06/30 01:50:32;;;;;;;12.43;6.60;;;20.80;75.80;;;;;;5087584;28;20488;-79
2023/06/30 01:53:01;;;;;;;10.10;6.27;;;20.80;75.90;;;;;;5085976;28;20472;-78
2023/06/30 01:55:29;;;;;;;10.30;6.80;;;20.80;75.80;;;;;;5079371;28;20971;-78
2023/06/30 01:57:57;;;;;;;12.37;6.87;;;20.80;75.70;;;;;;5064873;28;20453;-79
2023/06/30 02:00:47;;;;;;;9.63;6.43;;;20.70;75.70;;;;;;5072575;28;20551;-79
2023/06/30 02:03:15;;;;;;;9.00;6.13;;;20.60;75.80;;;;;;5061511;28;20899;-78
2023/06/30 02:05:43;;;;;;;14.50;6.70;;;20.60;75.90;;;;;;5070366;28;20866;-78
2023/06/30 02:08:11;;;;;;;11.30;7.10;;;20.50;76.00;;;;;;5070387;28;20867;-79
2023/06/30 02:10:39;;;;;;;16.23;6.60;;;20.50;76.00;;;;;;5085568;28;20826;-78
2023/06/30 02:13:07;;;;;;;17.87;7.23;;;20.50;76.00;;;;;;5073743;28;20481;-78
2023/06/30 02:15:37;;;;;;;11.97;6.27;;;20.50;75.80;;;;;;5070657;28;20488;-79
2023/06/30 02:18:06;;;;;;;12.10;7.60;;;20.50;75.70;;;;;;5081687;28;20822;-78
2023/06/30 02:20:35;;;;;;;12.30;7.77;;;20.50;75.70;;;;;;5083125;28;20449;-78
2023/06/30 02:23:03;;;;;;;14.23;8.03;;;20.40;75.90;;;;;;5064051;28;20458;-78
2023/06/30 02:25:31;;;;;;;14.00;7.60;;;20.40;76.10;;;;;;5088093;28;20450;-79
2023/06/30 02:28:00;;;;;;;11.83;7.30;;;20.40;76.30;;;;;;5086399;28;20452;-78
2023/06/30 02:30:28;;;;;;;12.80;6.77;;;20.40;76.20;;;;;;5067170;28;20462;-78
2023/06/30 02:32:57;;;;;;;14.00;7.00;;;20.50;76.30;;;;;;5072814;28;20501;-79
2023/06/30 02:35:26;;;;;;;12.63;6.40;;;20.50;76.30;;;;;;5068456;28;20477;-78
2023/06/30 02:37:54;;;;;;;17.20;7.70;;;20.50;76.20;;;;;;5084109;28;20457;-78
2023/06/30 02:40:25;;;;;;;12.87;6.90;;;20.50;76.10;;;;;;5070933;28;20555;-78
2023/06/30 02:42:53;;;;;;;11.10;6.50;;;20.60;76.10;;;;;;5089307;28;20441;-78
2023/06/30 02:45:22;;;;;;;11.80;7.13;;;20.50;76.00;;;;;;5068587;28;20442;-78
2023/06/30 02:47:50;;;;;;;14.93;7.43;;;20.50;76.00;;;;;;5072353;28;20511;-79
2023/06/30 02:50:18;;;;;;;12.90;6.37;;;20.50;75.90;;;;;;5070250;28;21022;-79
2023/06/30 02:52:47;;;;;;;11.20;6.20;;;20.50;76.00;;;;;;5064124;28;20810;-80
2023/06/30 02:55:15;;;;;;;10.60;6.57;;;20.50;76.10;;;;;;5065146;28;20444;-78
2023/06/30 02:57:43;;;;;;;11.10;6.70;;;20.50;76.10;;;;;;5081449;28;20914;-79
2023/06/30 03:00:13;;;;;;;11.10;7.43;;;20.50;76.00;;;;;;5062884;28;20448;-79
2023/06/30 03:02:41;;;;;;;12.83;7.90;;;20.50;76.00;;;;;;5071919;28;20475;-79
2023/06/30 03:05:09;;;;;;;12.20;7.80;;;20.40;75.90;;;;;;5071815;28;20464;-79
2023/06/30 03:07:39;;;;;;;18.67;7.87;;;20.30;76.00;;;;;;5067386;28;20499;-79
2023/06/30 03:10:09;;;;;;;12.40;7.17;;;20.20;76.20;;;;;;5067268;28;20456;-79
2023/06/30 03:12:37;;;;;;;14.73;7.43;;;20.10;76.30;;;;;;5066085;28;20453;-79
2023/06/30 03:15:06;;;;;;;12.10;7.33;;;20.10;76.50;;;;;;5070442;28;20462;-79
2023/06/30 03:17:36;;;;;;;15.30;7.40;;;20.10;76.60;;;;;;5066617;28;20480;-78
2023/06/30 03:20:10;;;;;;;11.63;6.80;;;20.20;76.60;;;;;;5067477;28;21261;-79
2023/06/30 03:22:39;;;;;;;20.87;8.20;;;20.20;76.60;;;;;;5064253;28;20827;-79
2023/06/30 03:25:09;;;;;;;15.80;7.03;;;20.20;76.50;;;;;;5058796;28;20464;-79
2023/06/30 03:27:37;;;;;;;18.73;7.97;;;20.20;76.40;;;;;;5071570;28;20552;-79
2023/06/30 03:30:06;;;;;;;13.43;7.40;;;20.20;76.40;;;;;;5086133;28;20472;-78
2023/06/30 03:32:38;;;;;;;14.57;7.20;;;20.20;76.40;;;;;;5082334;28;20461;-77
2023/06/30 03:35:07;;;;;;;13.77;6.90;;;20.20;76.40;;;;;;5078065;28;20880;-77
2023/06/30 03:37:35;;;;;;;11.70;6.70;;;20.20;76.40;;;;;;5080602;28;20467;-78
2023/06/30 03:40:05;;;;;;;12.50;7.13;;;20.20;76.40;;;;;;5066208;28;20457;-77
2023/06/30 03:42:34;;;;;;;17.33;7.73;;;20.20;76.50;;;;;;5071775;28;20484;-77
2023/06/30 03:45:03;;;;;;;20.37;7.20;;;20.20;76.40;;;;;;5076476;28;20463;-79
2023/06/30 03:47:33;;;;;;;11.77;7.37;;;20.20;76.40;;;;;;5064134;28;20548;-80
2023/06/30 03:50:01;;;;;;;15.10;8.20;;;20.10;76.40;;;;;;5081354;28;20458;-80
2023/06/30 03:52:29;;;;;;;12.83;7.33;;;20.10;76.40;;;;;;5076784;28;20464;-78
2023/06/30 03:54:57;;;;;;;16.47;7.33;;;20.00;76.50;;;;;;5078282;28;20480;-78
2023/06/30 03:57:25;;;;;;;13.53;8.17;;;20.00;76.60;;;;;;5068645;28;20464;-78
2023/06/30 03:59:54;;;;;;;17.13;7.80;;;20.00;76.70;;;;;;5084651;28;20482;-79
2023/06/30 04:02:22;;;;;;;11.77;7.33;;;20.00;76.80;;;;;;5068977;28;21227;-77
2023/06/30 04:04:50;;;;;;;15.80;8.00;;;19.90;76.80;;;;;;5082369;28;20448;-78
2023/06/30 04:07:18;;;;;;;11.10;7.23;;;19.90;76.90;;;;;;5078199;28;20547;-79
2023/06/30 04:09:46;;;;;;;11.67;7.07;;;19.90;77.10;;;;;;5085174;28;20475;-78
2023/06/30 04:12:14;;;;;;;12.97;8.30;;;19.90;77.20;;;;;;5077424;28;20471;-79
2023/06/30 04:14:42;;;;;;;12.40;8.33;;;20.00;77.30;;;;;;5074018;28;20477;-79
2023/06/30 04:17:11;;;;;;;16.70;8.17;;;20.10;77.30;;;;;;5087493;28;20479;-79
2023/06/30 04:19:39;;;;;;;13.80;8.40;;;20.10;77.30;;;;;;5085640;28;20476;-78
2023/06/30 04:22:07;;;;;;;11.10;8.03;;;20.20;77.30;;;;;;5068327;28;20461;-81
2023/06/30 04:24:35;;;;;;;13.30;7.43;;;20.20;77.30;;;;;;5085539;28;21379;-81
2023/06/30 04:27:03;;;;;;;15.70;8.40;;;20.30;77.40;;;;;;5086408;28;20463;-79
2023/06/30 04:29:31;;;;;;;17.23;7.57;;;20.30;77.40;;;;;;5086647;28;20455;-79
2023/06/30 04:31:59;;;;;;;12.30;7.70;;;20.40;77.40;;;;;;5083410;28;20475;-78
2023/06/30 04:34:29;;;;;;;18.70;8.00;;;20.40;77.30;;;;;;5087132;28;20564;-78
2023/06/30 04:36:57;;;;;;;16.70;7.53;;;20.50;77.30;;;;;;5087055;28;20460;-78
2023/06/30 04:39:24;;;;;;;16.43;7.77;;;20.50;77.30;;;;;;5077762;28;20504;-78
2023/06/30 04:41:52;;;;;;;27.97;8.83;;;20.50;77.30;;;;;;5080823;28;20492;-78
2023/06/30 04:44:21;;;;;;;18.07;7.60;;;20.60;77.30;;;;;;5081727;28;21055;-78
2023/06/30 04:46:49;;;;;;;22.80;8.23;;;20.60;77.40;;;;;;5092592;28;20456;-79
2023/06/30 04:49:17;;;;;;;14.20;7.67;;;20.60;77.50;;;;;;5088508;28;20444;-78
2023/06/30 04:51:47;;;;;;;15.13;8.20;;;20.60;77.50;;;;;;5073411;28;20925;-78
2023/06/30 04:54:15;;;;;;;16.30;7.73;;;20.70;77.60;;;;;;5082355;28;20485;-78
2023/06/30 04:56:43;;;;;;;12.30;8.60;;;20.70;77.60;;;;;;5070980;28;20456;-78
2023/06/30 04:59:11;;;;;;;17.57;8.37;;;20.70;77.70;;;;;;5079033;28;20466;-78
2023/06/30 05:01:38;;;;;;;13.77;8.47;;;20.70;77.80;;;;;;5085915;28;20480;-79
2023/06/30 05:04:08;;;;;;;12.33;8.20;;;20.70;77.80;;;;;;5072643;28;20480;-79
2023/06/30 05:06:35;;;;;;;18.47;7.80;;;20.80;77.90;;;;;;5084822;28;20540;-79
2023/06/30 05:09:05;;;;;;;13.57;8.80;;;20.80;77.90;;;;;;5084235;28;20457;-79
2023/06/30 05:11:33;;;;;;;15.70;8.50;;;20.80;78.00;;;;;;5086913;28;20467;-78
2023/06/30 05:14:01;;;;;;;14.70;7.80;;;20.80;78.00;;;;;;5088021;28;20489;-79
2023/06/30 05:16:28;;;;;;;20.43;9.10;;;20.80;78.10;;;;;;5092515;28;20456;-79
2023/06/30 05:19:00;;;;;;;14.20;9.17;;;20.90;78.10;;;;;;5086782;28;20457;-77
2023/06/30 05:21:28;;;;;;;12.17;8.60;;;20.90;78.10;;;;;;5086718;28;20717;-79
2023/06/30 05:23:56;;;;;;;14.37;8.60;;;20.90;78.20;;;;;;5084003;28;20473;-79
2023/06/30 05:26:25;;;;;;;17.07;10.63;;;20.90;78.20;;;;;;5086892;28;20445;-78
2023/06/30 05:28:55;;;;;;;17.23;9.70;;;20.90;78.30;;;;;;5088203;28;20475;-78
2023/06/30 05:31:32;;;;;;;12.87;9.30;;;21.00;78.40;;;;;;5068709;28;20488;-79
2023/06/30 05:34:00;;;;;;;16.83;11.33;;;21.00;78.40;;;;;;5070635;28;20461;-79
2023/06/30 05:36:29;;;;;;;13.83;11.80;;;21.00;78.50;;;;;;5072509;28;20461;-78
2023/06/30 05:38:57;;;;;;;14.83;10.73;;;21.00;78.50;;;;;;5087314;28;20467;-79
2023/06/30 05:41:26;;;;;;;15.90;11.27;;;21.00;78.60;;;;;;5067621;28;21576;-78
2023/06/30 05:43:54;;;;;;;14.10;11.10;;;21.00;78.60;;;;;;5086965;28;20942;-78
2023/06/30 05:46:22;;;;;;;15.43;12.00;;;21.00;78.70;;;;;;5087047;28;20564;-79
2023/06/30 05:48:50;;;;;;;15.53;11.10;;;21.00;78.70;;;;;;5074185;28;20480;-79
2023/06/30 05:51:18;;;;;;;16.33;10.23;;;20.90;78.70;;;;;;5091951;28;20465;-78
2023/06/30 05:53:46;;;;;;;16.20;10.93;;;20.90;78.80;;;;;;5085356;28;20465;-79
2023/06/30 05:56:14;;;;;;;15.57;12.07;;;20.90;78.70;;;;;;5071780;28;20491;-82
2023/06/30 05:58:43;;;;;;;14.60;10.40;;;20.90;78.80;;;;;;5079626;28;20452;-81
2023/06/30 06:01:11;;;;;;;16.63;11.73;;;20.90;78.80;;;;;;5076049;28;20477;-80
2023/06/30 06:03:39;;;;;;;21.17;12.10;;;20.80;78.90;;;;;;5069566;28;20462;-81
2023/06/30 06:06:07;;;;;;;13.50;11.07;;;20.80;78.90;;;;;;5068183;28;20442;-79
2023/06/30 06:08:35;;;;;;;16.30;11.00;;;20.70;79.10;;;;;;5082362;28;20448;-80
2023/06/30 06:11:03;;;;;;;16.20;11.43;;;20.70;79.20;;;;;;5088474;28;20464;-80
2023/06/30 06:13:32;;;;;;;14.37;10.30;;;20.70;79.30;;;;;;5084473;28;20448;-80
2023/06/30 06:16:02;;;;;;;13.60;10.53;;;20.80;79.40;;;;;;5087819;28;20873;-79
2023/06/30 06:18:31;;;;;;;15.73;11.80;;;20.80;79.50;;;;;;5091915;28;20950;-81
2023/06/30 06:20:59;;;;;;;17.00;11.70;;;20.90;79.50;;;;;;5075995;28;20472;-80
2023/06/30 06:23:28;;;;;;;15.40;9.70;;;21.00;79.70;;;;;;5088487;28;20465;-81
2023/06/30 06:25:56;;;;;;;12.83;10.37;;;21.10;79.70;;;;;;5069494;28;21414;-81
2023/06/30 06:28:24;;;;;;;16.13;9.47;;;21.20;79.60;;;;;;5079180;28;20453;-81
2023/06/30 06:30:52;;;;;;;14.20;10.53;;;21.30;79.50;;;;;;5074283;28;20963;-81
2023/06/30 06:33:22;;;;;;;15.23;10.50;;;21.40;79.30;;;;;;5085152;28;20436;-80
2023/06/30 06:35:51;;;;;;;14.17;10.67;;;21.50;79.10;;;;;;5079775;28;20482;-79
2023/06/30 06:38:20;;;;;;;14.23;10.70;;;21.50;79.10;;;;;;5092534;28;20453;-79
2023/06/30 06:40:48;;;;;;;14.73;10.63;;;21.60;79.10;;;;;;5074150;28;20877;-79
2023/06/30 06:43:16;;;;;;;22.63;11.60;;;21.70;78.90;;;;;;5069984;28;20981;-81
2023/06/30 06:45:48;;;;;;;15.50;10.50;;;21.80;78.90;;;;;;5072333;28;20460;-79
2023/06/30 06:48:21;;;;;;;13.43;11.30;;;21.80;78.80;;;;;;5082947;28;20464;-80
2023/06/30 06:50:52;;;;;;;14.73;10.40;;;21.90;78.90;;;;;;5084715;28;20984;-81
2023/06/30 06:53:21;;;;;;;12.87;10.00;;;22.00;78.90;;;;;;5081845;28;20468;-81
2023/06/30 06:55:49;;;;;;;14.77;10.20;;;22.00;78.80;;;;;;5060897;28;20477;-79
2023/06/30 06:58:18;;;;;;;14.70;10.23;;;22.10;78.70;;;;;;5078484;28;20445;-80
2023/06/30 07:00:47;;;;;;;16.27;10.70;;;22.20;78.60;;;;;;5078574;28;20591;-80
2023/06/30 07:03:16;;;;;;;12.50;9.83;;;22.20;78.50;;;;;;5081823;28;20458;-82
2023/06/30 07:05:44;;;;;;;15.60;10.17;;;22.30;78.30;;;;;;5086709;28;20461;-80
2023/06/30 07:08:15;;;;;;;14.80;9.20;;;22.30;78.10;;;;;;5077222;28;21354;-80
2023/06/30 07:10:44;;;;;;;14.20;9.63;;;22.40;78.00;;;;;;5080896;28;20534;-79
2023/06/30 07:13:13;;;;;;;15.60;9.27;;;22.50;78.00;;;;;;5085634;28;20459;-79
2023/06/30 07:15:41;;;;;;;13.00;9.40;;;22.50;77.90;;;;;;5083937;28;20806;-82
2023/06/30 07:18:09;;;;;;;11.60;9.23;;;22.50;77.70;;;;;;5071461;28;20464;-80
2023/06/30 07:20:37;;;;;;;14.00;9.83;;;22.60;77.50;;;;;;5071781;28;20451;-81
2023/06/30 07:23:05;;;;;;;12.60;9.90;;;22.60;77.50;;;;;;5078065;28;20457;-81
2023/06/30 07:25:34;;;;;;;15.37;8.57;;;22.60;77.40;;;;;;5086117;28;20474;-80
2023/06/30 07:28:03;;;;;;;18.83;10.53;;;22.60;77.40;;;;;;5066539;28;20807;-79
2023/06/30 07:30:31;;;;;;;13.07;9.20;;;22.70;77.30;;;;;;5086206;28;20474;-80
2023/06/30 07:32:59;;;;;;;14.53;10.13;;;22.80;77.20;;;;;;5070020;28;20457;-80
2023/06/30 07:35:27;;;;;;;12.47;8.93;;;22.80;77.20;;;;;;5071343;28;21157;-79
2023/06/30 07:37:56;;;;;;;12.90;8.80;;;22.80;77.10;;;;;;5085215;28;20452;-80
2023/06/30 07:40:23;;;;;;;13.53;9.40;;;22.90;77.00;;;;;;5083964;28;20469;-81
2023/06/30 07:42:53;;;;;;;10.40;8.23;;;23.00;76.80;;;;;;5083290;28;20452;-81
2023/06/30 07:45:21;;;;;;;17.97;8.70;;;23.00;76.60;;;;;;5066011;28;20450;-80
2023/06/30 07:47:49;;;;;;;13.37;8.77;;;23.00;76.30;;;;;;5084895;28;20536;-82
2023/06/30 07:50:17;;;;;;;13.07;8.20;;;23.00;76.10;;;;;;5082279;28;21464;-80
2023/06/30 07:52:47;;;;;;;13.20;8.07;;;23.00;76.10;;;;;;5077705;28;20494;-80
2023/06/30 07:55:17;;;;;;;10.90;8.20;;;23.00;75.90;;;;;;5087323;28;20505;-80
2023/06/30 07:57:45;;;;;;;11.10;7.33;;;23.00;75.80;;;;;;5084218;28;20963;-80
2023/06/30 08:00:18;;;;;;;12.77;8.37;;;23.10;75.80;;;;;;5083030;28;20559;-80
2023/06/30 08:02:47;;;;;;;12.10;8.23;;;23.20;75.80;;;;;;5085898;28;20506;-82
2023/06/30 08:05:16;;;;;;;13.03;8.90;;;23.20;75.70;;;;;;5084100;28;20449;-78
2023/06/30 08:07:45;;;;;;;13.33;8.67;;;23.20;75.60;;;;;;5076113;28;20446;-80
2023/06/30 08:10:17;;;;;;;13.67;8.93;;;23.20;75.60;;;;;;5083276;28;20512;-79
2023/06/30 08:12:45;;;;;;;15.33;8.53;;;23.20;75.70;;;;;;5083272;28;20494;-82
2023/06/30 08:15:14;;;;;;;13.33;8.07;;;23.30;75.70;;;;;;5069420;28;20467;-80
2023/06/30 08:17:42;;;;;;;9.50;7.60;;;23.30;75.70;;;;;;5084326;28;20951;-80
2023/06/30 08:20:24;;;;;;;15.03;8.70;;;23.30;75.60;;;;;;5062040;28;20446;-81
2023/06/30 08:22:53;;;;;;;11.80;7.70;;;23.40;75.50;;;;;;5090086;28;20488;-81
2023/06/30 08:25:23;;;;;;;9.60;7.00;;;23.40;75.20;;;;;;5071040;28;20465;-79
2023/06/30 08:27:51;;;;;;;10.70;7.50;;;23.40;75.20;;;;;;5067987;28;20461;-81
2023/06/30 08:30:20;;;;;;;11.30;7.77;;;23.40;75.00;;;;;;5062449;28;20449;-80
2023/06/30 08:32:53;;;;;;;10.40;7.93;;;23.50;74.90;;;;;;5085834;28;20582;-82
2023/06/30 08:35:21;;;;;;;13.83;7.90;;;23.50;74.80;;;;;;5083020;28;20581;-79
2023/06/30 08:37:50;;;;;;;11.70;8.00;;;23.50;74.70;;;;;;5083490;28;20523;-81
2023/06/30 08:40:25;;;;;;;13.03;8.60;;;23.60;74.60;;;;;;5079199;28;20817;-80
2023/06/30 08:42:55;;;;;;;14.77;9.43;;;23.60;74.60;;;;;;5069771;28;20526;-80
2023/06/30 08:45:26;;;;;;;12.20;7.93;;;23.60;74.50;;;;;;5082755;28;20465;-78
2023/06/30 08:47:56;;;;;;;12.00;8.70;;;23.60;74.40;;;;;;5084011;28;20496;-80
2023/06/30 08:50:24;;;;;;;14.07;9.07;;;23.60;74.50;;;;;;5066634;28;20516;-80
2023/06/30 08:52:53;;;;;;;15.70;9.30;;;23.60;74.60;;;;;;5080964;28;20459;-81
2023/06/30 08:55:21;;;;;;;11.00;8.47;;;23.60;74.60;;;;;;5079470;28;20449;-80
2023/06/30 08:57:50;;;;;;;11.17;8.43;;;23.60;74.60;;;;;;5084395;28;20575;-79
2023/06/30 09:00:19;;;;;;;10.20;8.00;;;23.70;74.70;;;;;;5081202;28;20467;-80
2023/06/30 09:02:49;;;;;;;12.67;8.60;;;23.80;74.70;;;;;;5081319;28;20548;-79
2023/06/30 09:05:19;;;;;;;12.30;8.20;;;23.80;74.70;;;;;;5070174;28;21048;-80
2023/06/30 09:07:52;;;;;;;12.57;8.70;;;23.90;74.70;;;;;;5066666;28;20994;-82
2023/06/30 09:10:22;;;;;;;10.90;8.67;;;23.90;74.50;;;;;;5085672;28;20456;-81
2023/06/30 09:12:54;;;;;;;9.83;7.23;;;24.00;74.40;;;;;;5068916;28;21171;-79
2023/06/30 09:15:23;;;;;;;12.30;8.33;;;24.00;74.20;;;;;;5083028;28;20441;-80
2023/06/30 09:17:53;;;;;;;11.47;8.37;;;24.00;74.20;;;;;;5082453;28;21335;-81
2023/06/30 09:20:22;;;;;;;13.20;8.90;;;24.00;74.10;;;;;;5076294;28;20437;-82
2023/06/30 09:22:50;;;;;;;10.90;9.03;;;24.10;74.00;;;;;;5084026;28;20455;-81
2023/06/30 09:25:43;;;;;;;11.43;8.87;;;24.10;73.90;;;;;;5082565;28;20460;-80
2023/06/30 09:28:14;;;;;;;10.87;8.07;;;24.10;73.80;;;;;;5072965;28;20447;-79
2023/06/30 09:30:45;;;;;;;10.60;8.80;;;24.10;73.70;;;;;;5075809;28;20476;-80
2023/06/30 09:33:16;;;;;;;11.90;9.30;;;24.10;73.70;;;;;;5087555;28;20441;-81
2023/06/30 09:35:45;;;;;;;14.73;9.63;;;24.10;73.60;;;;;;5089679;28;20462;-80
2023/06/30 09:38:15;;;;;;;13.33;9.30;;;24.20;73.50;;;;;;5087194;28;20486;-78
2023/06/30 09:40:44;;;;;;;12.87;9.03;;;24.20;73.40;;;;;;5068712;28;20448;-79
2023/06/30 09:43:18;;;;;;;13.23;9.10;;;24.20;73.30;;;;;;5084875;28;20464;-82
2023/06/30 09:45:47;;;;;;;12.20;9.27;;;24.20;73.30;;;;;;5083114;28;21039;-82
2023/06/30 09:48:17;;;;;;;14.23;10.63;;;24.20;73.30;;;;;;5088608;28;20543;-80
2023/06/30 09:50:45;;;;;;;11.07;9.20;;;24.30;73.30;;;;;;5090368;28;20451;-78
2023/06/30 09:53:19;;;;;;;17.90;10.33;;;24.30;73.20;;;;;;5087306;28;20456;-79
2023/06/30 09:55:49;;;;;;;15.70;10.37;;;24.40;73.20;;;;;;5088592;28;20863;-81
2023/06/30 09:58:18;;;;;;;14.93;9.80;;;24.40;73.20;;;;;;5087143;28;21020;-83
2023/06/30 10:00:47;;;;;;;17.07;9.87;;;24.40;73.00;;;;;;5090886;28;20464;-80
2023/06/30 10:03:16;;;;;;;18.77;10.77;;;24.50;72.80;;;;;;5072572;28;20456;-80
2023/06/30 10:05:48;;;;;;;12.53;9.60;;;24.50;72.70;;;;;;5078361;28;20453;-82
2023/06/30 10:08:17;;;;;;;14.93;9.53;;;24.50;72.50;;;;;;5086132;28;21214;-79
2023/06/30 10:10:45;;;;;;;15.20;10.47;;;24.60;72.30;;;;;;5087121;28;20459;-82
2023/06/30 10:13:15;;;;;;;13.47;11.00;;;24.60;72.30;;;;;;5089587;28;21009;-82
2023/06/30 10:15:44;;;;;;;15.60;10.33;;;24.60;72.40;;;;;;5070040;28;21065;-82
2023/06/30 10:22:33;;;;;;;14.87;10.67;;;24.80;72.20;;;;;;5087971;28;20416;-82
2023/06/30 10:25:02;;;;;;;19.20;12.53;;;24.80;71.90;;;;;;5088626;28;21290;-80
2023/06/30 10:27:31;;;;;;;14.83;10.77;;;24.90;71.80;;;;;;5085967;28;21105;-80
2023/06/30 10:29:59;;;;;;;16.27;12.00;;;24.90;71.70;;;;;;5083302;28;20985;-80
2023/06/30 10:32:33;;;;;;;21.10;12.60;;;24.90;71.70;;;;;;5083368;28;21054;-80
2023/06/30 10:35:02;;;;;;;18.43;13.10;;;25.00;71.70;;;;;;5086889;28;20994;-81
2023/06/30 10:37:30;;;;;;;22.70;14.20;;;25.00;71.70;;;;;;5065806;28;20481;-82
2023/06/30 10:40:01;;;;;;;19.83;13.00;;;25.00;71.60;;;;;;5067102;28;20453;-80
2023/06/30 10:42:37;;;;;;;21.60;13.37;;;25.10;71.40;;;;;;5085910;28;20519;-81
2023/06/30 10:45:06;;;;;;;20.83;14.47;;;25.10;71.20;;;;;;5082188;28;20459;-79
2023/06/30 10:47:39;;;;;;;21.37;14.60;;;25.10;71.20;;;;;;5086620;28;20825;-82
2023/06/30 10:50:14;;;;;;;17.80;13.57;;;25.10;70.90;;;;;;5081244;28;20484;-80
2023/06/30 10:52:49;;;;;;;19.63;14.40;;;25.00;70.80;;;;;;5085663;28;20449;-80
2023/06/30 10:55:22;;;;;;;21.03;14.60;;;25.00;70.80;;;;;;5086558;28;20444;-81
2023/06/30 10:57:53;;;;;;;24.13;14.63;;;25.00;70.80;;;;;;5086598;28;20988;-82
2023/06/30 11:00:24;;;;;;;20.67;15.67;;;24.90;70.80;;;;;;5067697;28;20528;-78
2023/06/30 11:02:57;;;;;;;26.90;16.30;;;24.90;70.80;;;;;;5087255;28;21217;-81
2023/06/30 11:05:28;;;;;;;23.37;16.97;;;24.80;70.80;;;;;;5087678;28;20568;-82
2023/06/30 11:08:06;;;;;;;23.83;17.30;;;24.80;70.70;;;;;;5081718;28;20803;-80
2023/06/30 11:10:37;;;;;;;28.27;17.23;;;24.70;70.70;;;;;;5068923;28;20941;-80
2023/06/30 11:13:09;;;;;;;25.97;18.40;;;24.60;70.70;;;;;;5084112;28;21061;-81
2023/06/30 11:15:40;;;;;;;25.57;19.43;;;24.60;70.70;;;;;;5087168;28;20500;-82
2023/06/30 11:18:12;;;;;;;30.67;20.50;;;24.50;70.80;;;;;;5079905;28;20517;-79
2023/06/30 11:20:59;;;;;;;30.70;22.20;;;24.50;71.00;;;;;;5082404;28;21210;-78
2023/06/30 11:23:29;;;;;;;34.03;23.27;;;24.50;71.10;;;;;;5078311;28;20471;-80
2023/06/30 11:26:12;;;;;;;33.57;21.30;;;24.50;71.20;;;;;;5078312;28;20555;-81
2023/06/30 11:28:42;;;;;;;33.37;23.07;;;24.50;71.30;;;;;;5083874;28;20453;-81
2023/06/30 11:31:10;;;;;;;36.03;23.40;;;24.50;71.40;;;;;;5085445;28;20492;-80
2023/06/30 11:33:40;;;;;;;33.20;24.73;;;24.60;71.50;;;;;;5085532;28;21141;-81
2023/06/30 11:36:13;;;;;;;37.07;24.60;;;24.60;71.50;;;;;;5082709;28;20464;-81
2023/06/30 11:38:44;;;;;;;35.37;24.73;;;24.60;71.40;;;;;;5079219;28;20487;-81
2023/06/30 11:41:18;;;;;;;35.17;23.57;;;24.60;71.40;;;;;;5069737;28;20465;-82
2023/06/30 11:43:49;;;;;;;37.23;22.33;;;24.60;71.50;;;;;;5085021;28;20494;-81
2023/06/30 11:46:17;;;;;;;32.03;22.67;;;24.70;71.70;;;;;;5087429;28;21109;-81
2023/06/30 11:48:45;;;;;;;28.53;19.97;;;24.70;71.80;;;;;;5083408;28;20460;-83
2023/06/30 11:51:13;;;;;;;29.00;20.30;;;24.70;71.70;;;;;;5082445;28;20469;-78
2023/06/30 11:53:43;;;;;;;31.23;19.40;;;24.70;71.70;;;;;;5084178;28;20445;-80
2023/06/30 11:56:12;;;;;;;30.90;19.43;;;24.70;71.60;;;;;;5082630;28;20485;-82
2023/06/30 11:58:43;;;;;;;25.70;18.70;;;24.70;71.50;;;;;;5080684;28;20501;-81
2023/06/30 12:01:11;;;;;;;24.57;17.13;;;24.70;71.40;;;;;;5059081;28;21235;-80
2023/06/30 12:03:39;;;;;;;25.40;17.60;;;24.60;71.40;;;;;;5075311;28;20827;-80
2023/06/30 12:06:07;;;;;;;23.10;16.30;;;24.60;71.50;;;;;;5085339;28;20847;-83
2023/06/30 12:08:38;;;;;;;23.53;16.17;;;24.50;71.30;;;;;;5086600;28;20488;-81
2023/06/30 12:11:07;;;;;;;23.60;14.77;;;24.50;71.20;;;;;;5083947;28;20555;-81
2023/06/30 12:13:40;;;;;;;21.30;14.40;;;24.40;71.30;;;;;;5069659;28;20449;-80
2023/06/30 12:16:08;;;;;;;26.47;13.40;;;24.40;71.20;;;;;;5080785;28;20464;-80
2023/06/30 12:18:37;;;;;;;19.03;12.87;;;24.30;71.20;;;;;;5084692;28;20481;-81
2023/06/30 12:21:10;;;;;;;21.40;13.40;;;24.30;71.20;;;;;;5073083;28;20459;-80
2023/06/30 12:23:43;;;;;;;19.40;13.37;;;24.20;71.30;;;;;;5085728;28;20456;-81
2023/06/30 12:26:13;;;;;;;19.37;12.60;;;24.20;71.30;;;;;;5083813;28;20873;-80
2023/06/30 12:28:43;;;;;;;22.97;13.30;;;24.10;71.20;;;;;;5073445;28;20962;-80
2023/06/30 12:31:13;;;;;;;19.13;12.37;;;24.00;71.30;;;;;;5089066;28;20495;-79
2023/06/30 12:33:41;;;;;;;20.70;13.30;;;24.00;71.40;;;;;;5089221;28;20460;-81
2023/06/30 12:36:09;;;;;;;18.17;12.50;;;24.00;71.50;;;;;;5068873;28;21235;-80
2023/06/30 12:38:37;;;;;;;17.03;11.73;;;24.00;71.60;;;;;;5069558;28;20802;-83
2023/06/30 12:41:06;;;;;;;20.20;10.80;;;24.00;71.60;;;;;;5080054;28;20947;-81
2023/06/30 12:43:34;;;;;;;16.43;10.40;;;24.00;71.50;;;;;;5082839;28;20512;-80
2023/06/30 12:46:04;;;;;;;17.97;10.73;;;23.90;71.50;;;;;;5067465;28;20834;-82
2023/06/30 12:48:33;;;;;;;15.23;10.63;;;23.90;71.60;;;;;;5066674;28;20537;-80